Time;durP1;ratioP1;P1;durP2;ratioP2;P2;SDS_P1;SDS_P2;PMS_P1;PMS_P2;Temp;Humidity;BMP_temperature;BMP_pressure;BME280_temperature;BME280_humidity;BME280_pressure;Samples;Min_cycle;Max_cycle;Signal;HPM_P1;HPM_P2
2022/07/25 00:00:25;;;;;;;9.73;8.65;;;;;;;19.72;100.00;95742.38;1034620;28;20033;-70
2022/07/25 00:00:55;;;;;;;9.05;8.15;;;;;;;19.64;100.00;95735.97;1027996;28;20026;-71
2022/07/25 00:01:26;;;;;;;12.93;8.52;;;;;;;19.70;100.00;95741.91;1021761;29;20031;-69
2022/07/25 00:01:56;;;;;;;13.60;8.85;;;;;;;19.69;100.00;95743.00;1022521;29;20019;-70
2022/07/25 00:02:27;;;;;;;9.88;8.85;;;;;;;19.68;100.00;95746.75;1023512;28;20142;-71
2022/07/25 00:02:57;;;;;;;9.68;8.38;;;;;;;19.65;100.00;95739.41;1030394;28;20670;-73
2022/07/25 00:03:28;;;;;;;12.18;8.38;;;;;;;19.65;100.00;95739.41;1030093;28;20026;-73
2022/07/25 00:03:58;;;;;;;9.60;8.60;;;;;;;19.66;100.00;95743.66;1030393;28;20089;-71
2022/07/25 00:04:29;;;;;;;9.65;8.40;;;;;;;19.64;100.00;95741.28;1026269;28;20544;-70
2022/07/25 00:04:59;;;;;;;10.05;8.88;;;;;;;19.65;100.00;95736.75;1026527;28;20062;-72
2022/07/25 00:05:30;;;;;;;9.77;8.55;;;;;;;19.64;100.00;95746.59;1030365;28;20058;-70
2022/07/25 00:06:00;;;;;;;9.60;8.48;;;;;;;19.64;100.00;95740.50;1026452;28;20030;-70
2022/07/25 00:06:31;;;;;;;10.55;8.90;;;;;;;19.62;100.00;95742.69;1030480;28;20034;-70
2022/07/25 00:07:04;;;;;;;10.65;8.38;;;;;;;19.62;100.00;95737.38;1030419;28;20500;-70
2022/07/25 00:07:35;;;;;;;13.35;9.10;;;;;;;19.62;100.00;95745.38;1026521;28;20092;-69
2022/07/25 00:08:06;;;;;;;12.10;8.85;;;;;;;19.60;100.00;95737.69;1030457;28;20085;-73
2022/07/25 00:08:36;;;;;;;9.63;8.55;;;;;;;19.55;100.00;95736.00;1030485;28;20050;-70
2022/07/25 00:09:07;;;;;;;9.63;8.02;;;;;;;19.55;100.00;95736.00;1022400;28;20505;-71
2022/07/25 00:09:37;;;;;;;11.43;8.80;;;;;;;19.59;100.00;95741.44;1020407;28;20027;-70
2022/07/25 00:10:08;;;;;;;11.23;9.02;;;;;;;19.52;100.00;95733.19;1022391;29;20015;-71
2022/07/25 00:10:39;;;;;;;9.68;8.68;;;;;;;19.57;100.00;95738.31;1026455;28;20539;-70
2022/07/25 00:11:09;;;;;;;10.02;8.43;;;;;;;19.50;100.00;95732.72;1025785;28;20035;-71
2022/07/25 00:11:40;;;;;;;11.93;9.00;;;;;;;19.52;100.00;95733.19;1018175;29;20490;-71
2022/07/25 00:12:10;;;;;;;12.98;9.25;;;;;;;19.53;100.00;95740.84;1022325;29;20189;-69
2022/07/25 00:12:43;;;;;;;12.57;8.70;;;;;;;19.52;100.00;95741.94;1022419;29;20068;-70
2022/07/25 00:13:14;;;;;;;12.75;8.68;;;;;;;19.51;100.00;95737.72;1024471;28;20027;-70
2022/07/25 00:13:47;;;;;;;10.80;8.45;;;;;;;19.48;100.00;95730.38;1030363;28;20760;-70
2022/07/25 00:14:17;;;;;;;12.63;8.68;;;;;;;19.49;100.00;95742.59;1030376;28;20782;-70
2022/07/25 00:14:48;;;;;;;10.85;8.32;;;;;;;19.49;100.00;95736.47;1030718;28;20030;-72
2022/07/25 00:15:18;;;;;;;12.73;8.77;;;;;;;19.48;100.00;95735.72;1026384;28;20373;-70
2022/07/25 00:15:49;;;;;;;9.77;8.35;;;;;;;19.47;100.00;95731.47;1026380;28;20027;-69
2022/07/25 00:16:19;;;;;;;9.43;8.10;;;;;;;19.48;100.00;95742.88;1022241;29;20086;-70
2022/07/25 00:16:50;;;;;;;10.35;9.07;;;;;;;19.47;100.00;95733.34;1019124;28;20110;-71
2022/07/25 00:17:20;;;;;;;10.10;8.57;;;;;;;19.46;100.00;95737.91;1022323;29;20058;-69
2022/07/25 00:17:51;;;;;;;11.45;8.63;;;;;;;19.48;100.00;95737.56;1018434;29;20031;-69
2022/07/25 00:18:22;;;;;;;15.20;8.95;;;;;;;19.48;100.00;95738.38;1024311;28;20043;-69
2022/07/25 00:18:52;;;;;;;9.88;8.90;;;;;;;19.49;100.00;95731.94;1026602;28;20030;-71
2022/07/25 00:19:23;;;;;;;10.73;8.60;;;;;;;19.49;100.00;95737.25;1030414;28;20030;-70
2022/07/25 00:19:53;;;;;;;9.48;8.18;;;;;;;19.48;100.00;95735.72;1034044;28;20572;-71
2022/07/25 00:20:24;;;;;;;10.93;8.80;;;;;;;19.49;100.00;95733.81;1030194;28;20098;-70
2022/07/25 00:20:54;;;;;;;11.45;8.93;;;;;;;19.48;100.00;95730.38;1022367;28;20082;-71
2022/07/25 00:21:25;;;;;;;9.43;8.52;;;;;;;19.48;100.00;95734.91;1021605;28;20042;-71
2022/07/25 00:21:56;;;;;;;14.25;9.27;;;;;;;19.31;100.00;95709.13;1026238;28;20023;-70
2022/07/25 00:22:26;;;;;;;13.70;9.48;;;;;;;19.49;100.00;95739.16;1026441;28;20536;-70
2022/07/25 00:22:57;;;;;;;9.80;8.68;;;;;;;19.47;100.00;95731.47;1030370;28;20093;-70
2022/07/25 00:23:28;;;;;;;12.13;8.82;;;;;;;19.48;100.00;95733.03;1030077;28;20034;-70
2022/07/25 00:23:58;;;;;;;10.00;9.00;;;;;;;19.47;100.00;95742.13;1026649;28;20065;-74
2022/07/25 00:24:28;;;;;;;10.70;9.13;;;;;;;19.47;100.00;95736.00;1034333;28;20515;-71
2022/07/25 00:24:59;;;;;;;9.93;9.00;;;;;;;19.42;100.00;95728.22;1034170;28;20033;-71
2022/07/25 00:25:29;;;;;;;10.02;8.82;;;;;;;19.47;100.00;95731.47;1030376;28;20038;-70
2022/07/25 00:26:00;;;;;;;13.80;9.15;;;;;;;19.48;100.00;95737.56;1030223;28;20025;-69
2022/07/25 00:26:30;;;;;;;10.20;8.85;;;;;;;19.48;100.00;95733.03;1022182;29;20599;-72
2022/07/25 00:27:01;;;;;;;10.30;8.55;;;;;;;19.49;100.00;95734.59;1025594;28;20105;-70
2022/07/25 00:27:32;;;;;;;12.82;8.93;;;;;;;19.48;100.00;95737.56;1030392;28;20523;-70
2022/07/25 00:28:02;;;;;;;13.70;8.57;;;;;;;19.47;100.00;95736.78;1026528;28;20122;-70
2022/07/25 00:28:33;;;;;;;10.70;8.77;;;;;;;19.45;100.00;95732.88;1030036;28;20049;-71
2022/07/25 00:29:03;;;;;;;10.40;9.30;;;;;;;19.45;100.00;95731.03;1030196;28;20041;-70
2022/07/25 00:29:34;;;;;;;11.73;9.40;;;;;;;19.42;100.00;95730.88;1030308;28;20026;-71
2022/07/25 00:30:05;;;;;;;14.27;9.48;;;;;;;19.41;100.00;95732.72;1034211;28;20033;-70
2022/07/25 00:30:36;;;;;;;12.50;9.85;;;;;;;19.33;100.00;95725.56;1030167;28;20102;-70
2022/07/25 00:31:06;;;;;;;10.95;8.93;;;;;;;19.41;100.00;95735.41;1029861;28;20049;-71
2022/07/25 00:31:37;;;;;;;11.32;9.60;;;;;;;19.40;100.00;95735.72;1030274;28;20150;-69
2022/07/25 00:32:07;;;;;;;15.05;8.82;;;;;;;19.38;100.00;95744.00;1030219;28;20160;-70
2022/07/25 00:32:38;;;;;;;10.23;9.00;;;;;;;19.37;100.00;95734.47;1030115;28;20030;-71
2022/07/25 00:33:08;;;;;;;12.60;8.95;;;;;;;19.36;100.00;95734.81;1030419;28;20461;-71
2022/07/25 00:33:39;;;;;;;13.48;9.48;;;;;;;19.37;100.00;95736.38;1028374;28;20089;-71
2022/07/25 00:34:09;;;;;;;9.85;8.85;;;;;;;19.23;100.00;95709.97;1030337;28;20030;-71
2022/07/25 00:34:40;;;;;;;9.63;8.63;;;;;;;19.38;100.00;95732.59;1030205;28;20056;-70
2022/07/25 00:35:10;;;;;;;11.88;9.30;;;;;;;19.39;100.00;95739.50;1026273;28;20034;-70
2022/07/25 00:35:41;;;;;;;10.55;9.45;;;;;;;19.37;100.00;95731.03;1026242;28;20480;-70
2022/07/25 00:36:11;;;;;;;10.60;9.27;;;;;;;19.36;100.00;95735.59;1022439;28;20031;-72
2022/07/25 00:36:42;;;;;;;10.93;8.70;;;;;;;19.34;100.00;95731.69;1022260;28;20035;-70
2022/07/25 00:37:12;;;;;;;11.10;9.15;;;;;;;19.36;100.00;95732.16;1026254;28;20790;-71
2022/07/25 00:37:43;;;;;;;10.38;9.25;;;;;;;19.33;100.00;95736.22;1026600;28;20034;-70
2022/07/25 00:38:13;;;;;;;12.80;9.02;;;;;;;19.31;100.00;95736.56;1030331;28;20038;-70
2022/07/25 00:38:44;;;;;;;12.20;9.13;;;;;;;19.29;100.00;95737.97;1025896;28;20026;-71
2022/07/25 00:39:14;;;;;;;13.57;9.73;;;;;;;19.18;100.00;95724.22;1022239;29;20115;-71
2022/07/25 00:39:45;;;;;;;14.50;9.73;;;;;;;19.26;100.00;95742.03;1026306;28;20041;-71
2022/07/25 00:40:16;;;;;;;11.70;9.00;;;;;;;19.26;100.00;95741.25;1022317;28;20122;-71
2022/07/25 00:40:46;;;;;;;14.48;9.93;;;;;;;19.24;100.00;95738.91;1026197;28;20425;-70
2022/07/25 00:41:16;;;;;;;10.93;8.90;;;;;;;19.23;100.00;95739.22;1025817;28;20031;-70
2022/07/25 00:41:47;;;;;;;12.10;9.80;;;;;;;19.18;100.00;95740.19;1030345;28;20030;-72
2022/07/25 00:42:17;;;;;;;10.48;8.77;;;;;;;19.18;100.00;95736.72;1029935;28;20642;-71
2022/07/25 00:42:48;;;;;;;9.98;8.85;;;;;;;19.17;100.00;95735.16;1026295;28;20041;-70
2022/07/25 00:43:18;;;;;;;10.80;9.07;;;;;;;19.15;100.00;95734.69;1026357;28;20026;-70
2022/07/25 00:43:49;;;;;;;12.38;8.85;;;;;;;19.14;100.00;95739.25;1030233;28;20042;-72
2022/07/25 00:44:23;;;;;;;11.02;9.30;;;;;;;19.12;100.00;95740.69;1030289;28;20053;-70
2022/07/25 00:44:53;;;;;;;11.10;9.80;;;;;;;19.08;100.00;95741.31;1034309;28;20026;-70
2022/07/25 00:45:24;;;;;;;11.85;9.50;;;;;;;19.07;100.00;95745.03;1030012;28;20049;-70
2022/07/25 00:45:54;;;;;;;10.93;9.23;;;;;;;19.08;100.00;95735.22;1030430;28;20034;-72
2022/07/25 00:46:25;;;;;;;18.08;9.77;;;;;;;19.05;100.00;95736.63;1030923;28;20034;-71
2022/07/25 00:46:55;;;;;;;10.18;9.18;;;;;;;19.03;100.00;95735.38;1027190;28;20027;-71
2022/07/25 00:47:26;;;;;;;11.25;9.10;;;;;;;19.02;100.00;95739.91;1026816;28;20629;-74
2022/07/25 00:47:56;;;;;;;10.85;9.27;;;;;;;19.00;100.00;95734.09;1017362;29;20090;-71
2022/07/25 00:48:27;;;;;;;12.35;9.68;;;;;;;18.99;100.00;95737.09;1019012;29;20043;-71
2022/07/25 00:48:58;;;;;;;10.82;9.52;;;;;;;18.96;100.00;95738.50;1015082;29;20096;-71
2022/07/25 00:49:28;;;;;;;12.95;9.60;;;;;;;18.95;100.00;95739.59;1019174;28;20531;-71
2022/07/25 00:49:58;;;;;;;16.50;10.23;;;;;;;18.94;100.00;95734.59;1027187;28;20027;-71
2022/07/25 00:50:29;;;;;;;11.88;9.95;;;;;;;18.92;100.00;95742.13;1030906;28;20054;-71
2022/07/25 00:50:59;;;;;;;12.70;9.57;;;;;;;18.85;100.00;95729.31;1031143;28;20029;-71
2022/07/25 00:51:30;;;;;;;11.45;10.02;;;;;;;18.82;100.00;95730.72;1030366;28;20053;-70
2022/07/25 00:52:00;;;;;;;13.05;10.23;;;;;;;18.92;100.00;95736.81;1026983;28;20066;-69
2022/07/25 00:52:31;;;;;;;10.70;8.70;;;;;;;18.93;100.00;95736.47;1026945;28;20050;-70
2022/07/25 00:53:01;;;;;;;15.10;9.80;;;;;;;18.92;100.00;95736.81;1026933;28;20034;-71
2022/07/25 00:53:32;;;;;;;13.35;9.95;;;;;;;18.94;100.00;95740.69;1026788;28;20540;-70
2022/07/25 00:54:02;;;;;;;10.65;9.40;;;;;;;18.95;100.00;95741.50;1022792;28;20023;-71
2022/07/25 00:54:33;;;;;;;12.25;9.60;;;;;;;18.86;100.00;95725.53;1019010;29;20027;-71
2022/07/25 00:55:07;;;;;;;11.40;9.65;;;;;;;18.94;100.00;95745.22;1018968;29;20506;-69
2022/07/25 00:55:37;;;;;;;10.82;9.60;;;;;;;18.93;100.00;95739.13;1019226;29;20041;-71
2022/07/25 00:56:08;;;;;;;10.73;9.63;;;;;;;18.91;100.00;95737.88;1019512;29;20130;-72
2022/07/25 00:56:38;;;;;;;14.27;9.73;;;;;;;18.90;100.00;95737.09;1019485;28;20071;-71
2022/07/25 00:57:09;;;;;;;10.30;9.30;;;;;;;18.91;100.00;95737.88;1023197;29;20019;-70
2022/07/25 00:57:39;;;;;;;11.10;9.10;;;;;;;18.88;100.00;95736.66;1022943;28;20054;-71
2022/07/25 00:58:10;;;;;;;10.65;9.48;;;;;;;18.81;100.00;95731.00;1019349;28;20031;-70
2022/07/25 00:58:40;;;;;;;10.85;9.80;;;;;;;18.86;100.00;95738.84;1022853;29;20050;-70
2022/07/25 00:59:11;;;;;;;10.80;9.68;;;;;;;18.85;100.00;95731.97;1018995;29;20031;-70
2022/07/25 00:59:41;;;;;;;10.80;9.40;;;;;;;18.75;100.00;95725.09;1022940;28;20058;-72
2022/07/25 01:00:13;;;;;;;11.52;9.10;;;;;;;18.81;100.00;95736.31;1027044;28;20575;-70
2022/07/25 01:00:43;;;;;;;10.95;9.43;;;;;;;18.80;100.00;95734.78;1026678;28;20393;-71
2022/07/25 01:01:14;;;;;;;10.52;9.05;;;;;;;18.77;100.00;95736.19;1026351;28;20031;-71
2022/07/25 01:01:46;;;;;;;12.85;10.00;;;;;;;18.76;100.00;95728.53;1030549;28;20034;-70
2022/07/25 01:02:17;;;;;;;12.20;9.88;;;;;;;18.74;100.00;95733.38;1031412;28;20852;-69
2022/07/25 01:02:47;;;;;;;11.48;9.40;;;;;;;18.72;100.00;95739.00;1022590;29;20031;-72
2022/07/25 01:03:18;;;;;;;10.98;9.18;;;;;;;18.71;100.00;95736.63;1019360;29;20019;-71
2022/07/25 01:03:48;;;;;;;14.05;10.77;;;;;;;18.69;100.00;95744.16;1018982;29;20030;-71
2022/07/25 01:04:18;;;;;;;16.05;10.32;;;;;;;18.66;100.00;95734.91;1022926;28;20126;-70
2022/07/25 01:04:49;;;;;;;9.82;8.82;;;;;;;18.67;100.00;95733.03;1026861;28;20492;-70
2022/07/25 01:05:19;;;;;;;11.57;9.85;;;;;;;18.66;100.00;95739.44;1023034;28;20031;-71
2022/07/25 01:05:50;;;;;;;11.95;10.02;;;;;;;18.65;100.00;95737.91;1026569;28;20362;-70
2022/07/25 01:06:20;;;;;;;11.60;10.40;;;;;;;18.65;100.00;95743.22;1019204;29;20042;-70
2022/07/25 01:06:51;;;;;;;10.52;9.50;;;;;;;18.64;100.00;95733.66;1027052;28;20551;-70
2022/07/25 01:07:21;;;;;;;12.05;10.05;;;;;;;18.60;100.00;95728.97;1026862;28;20022;-69
2022/07/25 01:07:52;;;;;;;16.08;10.18;;;;;;;18.60;100.00;95744.91;1023262;28;20019;-71
2022/07/25 01:08:22;;;;;;;14.75;9.60;;;;;;;18.59;100.00;95735.38;1022749;29;20510;-70
2022/07/25 01:08:53;;;;;;;13.23;9.82;;;;;;;18.58;100.00;95733.84;1019026;29;20027;-70
2022/07/25 01:09:26;;;;;;;14.98;10.32;;;;;;;18.57;100.00;95737.56;1019571;28;20832;-70
2022/07/25 01:09:57;;;;;;;13.60;10.25;;;;;;;18.57;100.00;95731.47;1023724;28;20066;-69
2022/07/25 01:10:30;;;;;;;18.75;10.52;;;;;;;18.56;100.00;95733.34;1031154;28;20018;-70
2022/07/25 01:11:00;;;;;;;12.75;10.45;;;;;;;18.54;100.00;95732.91;1030942;28;20022;-70
2022/07/25 01:11:30;;;;;;;14.80;10.30;;;;;;;18.53;100.00;95728.66;1024770;28;20050;-70
2022/07/25 01:12:01;;;;;;;15.27;10.00;;;;;;;18.53;100.00;95736.63;1027383;28;20030;-69
2022/07/25 01:12:31;;;;;;;13.82;10.05;;;;;;;18.52;100.00;95729.75;1026956;28;20405;-68
2022/07/25 01:13:02;;;;;;;12.90;10.63;;;;;;;18.50;100.00;95731.94;1026859;28;20528;-71
2022/07/25 01:13:33;;;;;;;13.27;10.20;;;;;;;18.51;100.00;95727.41;1026986;28;20122;-70
2022/07/25 01:14:04;;;;;;;12.75;10.73;;;;;;;18.51;100.00;95732.72;1022800;29;20425;-69
2022/07/25 01:14:35;;;;;;;14.38;10.30;;;;;;;18.49;100.00;95727.72;1018954;29;20023;-70
2022/07/25 01:15:09;;;;;;;18.52;10.93;;;;;;;18.49;100.00;95735.69;1019418;28;20063;-70
2022/07/25 01:15:39;;;;;;;16.85;10.48;;;;;;;18.48;100.00;95723.53;1023768;28;20490;-69
2022/07/25 01:16:10;;;;;;;11.38;10.18;;;;;;;18.47;100.00;95731.78;1027381;28;20037;-68
2022/07/25 01:16:40;;;;;;;11.45;10.25;;;;;;;18.46;100.00;95733.66;1030911;28;20030;-70
2022/07/25 01:17:12;;;;;;;19.50;10.38;;;;;;;18.45;100.00;95734.78;1030967;28;20026;-69
2022/07/25 01:17:42;;;;;;;17.98;10.48;;;;;;;18.46;100.00;95735.53;1034904;28;20901;-69
2022/07/25 01:18:13;;;;;;;12.50;10.00;;;;;;;18.44;100.00;95727.88;1030607;28;20038;-68
2022/07/25 01:18:43;;;;;;;11.50;9.40;;;;;;;18.42;100.00;95731.97;1026912;28;20050;-71
2022/07/25 01:19:14;;;;;;;10.95;9.75;;;;;;;18.43;100.00;95733.50;1026886;28;20026;-71
2022/07/25 01:19:46;;;;;;;13.93;9.90;;;;;;;18.38;100.00;95721.19;1026922;28;20039;-68
2022/07/25 01:20:26;;;;;;;14.90;10.15;;;;;;;18.42;100.00;95724.00;1027342;28;20117;-71
2022/07/25 01:20:57;;;;;;;14.15;10.40;;;;;;;18.42;100.00;95724.75;1030776;28;20042;-70
2022/07/25 01:21:27;;;;;;;12.02;9.88;;;;;;;18.41;100.00;95725.88;1030191;28;20042;-71
2022/07/25 01:21:58;;;;;;;22.05;10.75;;;;;;;18.42;100.00;95724.00;1030788;28;20023;-70
2022/07/25 01:22:28;;;;;;;19.08;10.10;;;;;;;18.41;100.00;95723.22;1030758;28;20035;-70
2022/07/25 01:22:59;;;;;;;14.60;11.18;;;;;;;18.39;100.00;95722.72;1030923;28;20520;-69
2022/07/25 01:23:29;;;;;;;10.43;9.32;;;;;;;18.40;100.00;95723.50;1022737;29;20023;-69
2022/07/25 01:24:00;;;;;;;11.07;9.75;;;;;;;18.38;100.00;95718.53;1019027;29;20051;-69
2022/07/25 01:24:31;;;;;;;12.57;9.65;;;;;;;18.38;100.00;95716.63;1022786;28;20042;-72
2022/07/25 01:25:01;;;;;;;17.23;10.43;;;;;;;18.38;100.00;95721.19;1022763;28;20031;-71
2022/07/25 01:25:32;;;;;;;12.18;9.68;;;;;;;18.38;100.00;95718.53;1022863;29;20641;-69
2022/07/25 01:26:02;;;;;;;12.43;9.85;;;;;;;18.36;100.00;95720.69;1014962;29;20036;-70
2022/07/25 01:26:33;;;;;;;11.15;9.80;;;;;;;18.37;100.00;95720.38;1018895;29;20438;-71
2022/07/25 01:27:03;;;;;;;13.25;10.00;;;;;;;18.37;100.00;95719.59;1018820;28;20027;-69
2022/07/25 01:27:34;;;;;;;20.58;10.90;;;;;;;18.35;100.00;95714.59;1027012;28;20030;-70
2022/07/25 01:28:04;;;;;;;12.07;10.35;;;;;;;18.29;100.00;95710.53;1026823;28;20590;-69
2022/07/25 01:28:35;;;;;;;12.23;10.07;;;;;;;18.35;100.00;95713.81;1026842;28;20027;-71
2022/07/25 01:29:05;;;;;;;13.18;9.63;;;;;;;18.32;100.00;95712.56;1026693;28;20532;-70
2022/07/25 01:29:36;;;;;;;12.57;10.70;;;;;;;18.33;100.00;95706.16;1023129;28;20039;-71
2022/07/25 01:30:07;;;;;;;14.52;10.82;;;;;;;18.28;100.00;95708.22;1026733;28;20038;-68
2022/07/25 01:30:38;;;;;;;14.63;9.80;;;;;;;18.33;100.00;95705.38;1022925;29;20058;-70
2022/07/25 01:31:08;;;;;;;15.43;10.35;;;;;;;18.28;100.00;95708.22;1018295;28;20043;-72
2022/07/25 01:31:39;;;;;;;14.77;9.88;;;;;;;18.32;100.00;95709.13;1022716;28;20078;-71
2022/07/25 01:32:11;;;;;;;12.13;9.40;;;;;;;18.32;100.00;95704.59;1018722;29;20027;-69
2022/07/25 01:32:41;;;;;;;11.73;10.52;;;;;;;18.32;100.00;95709.91;1018920;29;20095;-70
2022/07/25 01:33:16;;;;;;;11.10;10.00;;;;;;;18.32;100.00;95703.81;1014643;29;20031;-71
2022/07/25 01:33:46;;;;;;;12.10;9.73;;;;;;;18.13;100.00;95680.22;1019522;29;20082;-70
2022/07/25 01:34:17;;;;;;;12.23;10.32;;;;;;;18.32;100.00;95709.13;1024092;28;20099;-71
2022/07/25 01:34:47;;;;;;;11.48;10.27;;;;;;;18.26;100.00;95705.06;1030733;28;20129;-69
2022/07/25 01:35:18;;;;;;;11.52;10.32;;;;;;;18.31;100.00;95705.72;1022690;28;20378;-70
2022/07/25 01:35:48;;;;;;;15.27;10.07;;;;;;;18.27;100.00;95701.31;1026838;28;20093;-70
2022/07/25 01:36:19;;;;;;;11.70;10.50;;;;;;;18.31;100.00;95715.56;1022944;29;20042;-70
2022/07/25 01:36:49;;;;;;;13.00;10.05;;;;;;;18.30;100.00;95703.34;1023063;28;20043;-71
2022/07/25 01:37:20;;;;;;;11.57;10.48;;;;;;;18.23;100.00;95695.84;1026588;28;20086;-70
2022/07/25 01:37:50;;;;;;;13.55;10.70;;;;;;;18.29;100.00;95707.09;1027068;28;20038;-72
2022/07/25 01:38:21;;;;;;;12.90;9.82;;;;;;;18.29;100.00;95707.09;1030927;28;20069;-71
2022/07/25 01:38:51;;;;;;;13.38;10.65;;;;;;;18.28;100.00;95713.53;1030800;28;20069;-70
2022/07/25 01:39:22;;;;;;;11.13;10.02;;;;;;;18.26;100.00;95713.03;1026705;28;20751;-69
2022/07/25 01:39:52;;;;;;;14.43;10.32;;;;;;;18.23;100.00;95703.81;1026870;28;20054;-70
2022/07/25 01:40:22;;;;;;;11.55;10.35;;;;;;;18.21;100.00;95707.88;1022689;28;20070;-71
2022/07/25 01:40:53;;;;;;;12.60;10.35;;;;;;;18.19;100.00;95702.88;1022841;29;20039;-71
2022/07/25 01:41:23;;;;;;;13.43;10.73;;;;;;;18.18;100.00;95703.97;1021950;29;20531;-70
2022/07/25 01:41:54;;;;;;;12.65;11.20;;;;;;;18.19;100.00;95704.75;1023043;28;20119;-70
2022/07/25 01:42:24;;;;;;;14.65;10.57;;;;;;;18.11;100.00;95704.44;1022729;28;20031;-69
2022/07/25 01:42:57;;;;;;;12.30;10.60;;;;;;;18.16;100.00;95710.69;1026832;28;20469;-70
2022/07/25 01:43:28;;;;;;;15.80;10.10;;;;;;;18.13;100.00;95707.53;1018707;29;20032;-69
2022/07/25 01:43:58;;;;;;;11.10;9.85;;;;;;;18.13;100.00;95709.44;1018532;29;20458;-71
2022/07/25 01:44:28;;;;;;;12.95;10.13;;;;;;;18.10;100.00;95702.84;1014999;29;20044;-70
2022/07/25 01:44:59;;;;;;;11.73;10.32;;;;;;;18.10;100.00;95707.38;1015056;29;20502;-71
2022/07/25 01:45:30;;;;;;;12.40;10.63;;;;;;;18.08;100.00;95709.59;1018649;29;20051;-70
2022/07/25 01:46:00;;;;;;;13.38;10.30;;;;;;;18.06;100.00;95707.22;1023129;28;20109;-70
2022/07/25 01:46:31;;;;;;;15.05;10.07;;;;;;;18.06;100.00;95706.47;1022696;29;20533;-70
2022/07/25 01:47:01;;;;;;;13.48;10.35;;;;;;;18.03;100.00;95705.19;1022712;28;20031;-74
2022/07/25 01:47:32;;;;;;;12.13;10.68;;;;;;;18.03;100.00;95710.50;1022761;29;20042;-67
2022/07/25 01:48:02;;;;;;;16.38;10.85;;;;;;;18.01;100.00;95710.06;1021392;28;20314;-71
2022/07/25 01:48:33;;;;;;;25.25;11.20;;;;;;;18.02;100.00;95711.59;1026738;28;20088;-72
2022/07/25 01:49:03;;;;;;;31.50;12.23;;;;;;;18.00;100.00;95705.81;1018850;29;20035;-71
2022/07/25 01:49:34;;;;;;;16.58;11.60;;;;;;;18.01;100.00;95707.41;1018784;29;20410;-70
2022/07/25 01:50:05;;;;;;;49.22;14.15;;;;;;;18.01;100.00;95714.59;1019023;29;20024;-70
2022/07/25 01:50:35;;;;;;;25.42;12.38;;;;;;;17.95;100.00;95705.97;1022940;28;20027;-71
2022/07/25 01:51:07;;;;;;;17.63;11.45;;;;;;;18.01;100.00;95707.41;1030376;28;20559;-68
2022/07/25 01:51:37;;;;;;;12.73;10.45;;;;;;;17.99;100.00;95706.91;1030743;28;20034;-71
2022/07/25 01:52:07;;;;;;;14.52;10.77;;;;;;;17.99;100.00;95711.44;1030544;28;20029;-69
2022/07/25 01:52:38;;;;;;;14.48;11.10;;;;;;;17.98;100.00;95705.34;1026825;28;20027;-69
2022/07/25 01:53:09;;;;;;;22.35;11.32;;;;;;;17.97;100.00;95703.78;1022862;28;20034;-70
2022/07/25 01:53:39;;;;;;;13.98;10.68;;;;;;;17.97;100.00;95700.34;1026602;28;20037;-68
2022/07/25 01:54:09;;;;;;;20.20;12.43;;;;;;;17.95;100.00;95700.66;1026551;28;20034;-71
2022/07/25 01:54:40;;;;;;;12.15;10.23;;;;;;;17.92;100.00;95695.97;1022900;28;20094;-68
2022/07/25 01:55:11;;;;;;;14.38;11.15;;;;;;;17.97;100.00;95705.66;1026784;28;20035;-71
2022/07/25 01:55:43;;;;;;;15.57;10.60;;;;;;;17.95;100.00;95703.31;1027970;28;20452;-70
2022/07/25 01:56:13;;;;;;;13.40;10.65;;;;;;;17.95;100.00;95705.97;1030569;28;20041;-71
2022/07/25 01:56:44;;;;;;;40.63;14.32;;;;;;;17.86;100.00;95697.97;1031093;28;20061;-71
2022/07/25 01:57:14;;;;;;;29.90;11.98;;;;;;;17.74;100.00;95687.19;1030460;28;20097;-70
2022/07/25 01:57:45;;;;;;;15.68;11.48;;;;;;;17.89;100.00;95704.56;1030397;28;20435;-67
2022/07/25 01:58:15;;;;;;;19.92;10.88;;;;;;;17.89;100.00;95705.34;1024936;28;20077;-71
2022/07/25 01:58:46;;;;;;;24.80;11.38;;;;;;;17.90;100.00;95701.56;1026361;28;20034;-69
2022/07/25 01:59:16;;;;;;;16.15;11.45;;;;;;;17.89;100.00;95702.69;1017073;29;20028;-73
2022/07/25 01:59:47;;;;;;;20.30;11.68;;;;;;;17.89;100.00;95701.91;1012660;29;20769;-70
2022/07/25 02:00:17;;;;;;;12.85;10.25;;;;;;;17.82;100.00;95696.28;1018537;29;20043;-71
2022/07/25 02:00:48;;;;;;;16.58;11.30;;;;;;;17.86;100.00;95705.94;1024111;28;20588;-70
2022/07/25 02:01:18;;;;;;;16.17;11.43;;;;;;;17.87;100.00;95710.19;1025132;28;20058;-69
2022/07/25 02:01:49;;;;;;;11.85;10.65;;;;;;;17.85;100.00;95704.41;1030744;28;20030;-69
2022/07/25 02:02:19;;;;;;;12.82;10.90;;;;;;;17.84;100.00;95704.69;1026676;28;20485;-71
2022/07/25 02:03:28;;;;;;;12.35;10.80;;;;;;;17.83;100.00;95703.91;1022888;28;20035;-71
2022/07/25 02:03:40;;;;;;;22.13;10.75;;;;;;;17.82;100.00;95704.22;1026693;28;20031;-70
2022/07/25 02:04:10;;;;;;;12.63;10.30;;;;;;;17.78;100.00;95704.06;1029133;28;20109;-70
2022/07/25 02:04:41;;;;;;;12.35;11.05;;;;;;;17.79;100.00;95707.50;1033582;28;20061;-70
2022/07/25 02:05:12;;;;;;;13.60;10.70;;;;;;;17.74;100.00;95699.63;1030730;28;20724;-70
2022/07/25 02:05:43;;;;;;;11.93;10.55;;;;;;;17.73;100.00;95698.09;1026852;28;20122;-70
2022/07/25 02:06:13;;;;;;;13.00;10.45;;;;;;;17.78;100.00;95705.94;1026450;28;20045;-70
2022/07/25 02:06:44;;;;;;;15.73;11.52;;;;;;;17.79;100.00;95710.16;1026875;28;20050;-72
2022/07/25 02:07:14;;;;;;;11.40;10.10;;;;;;;17.77;100.00;95707.81;1022666;29;20031;-71
2022/07/25 02:07:45;;;;;;;15.25;10.35;;;;;;;17.77;100.00;95712.31;1022789;28;20413;-69
2022/07/25 02:08:15;;;;;;;14.25;10.43;;;;;;;17.78;100.00;95705.94;1026692;28;20027;-70
2022/07/25 02:08:46;;;;;;;12.85;10.20;;;;;;;17.76;100.00;95708.91;1022963;28;20544;-68
2022/07/25 02:09:16;;;;;;;13.23;11.18;;;;;;;17.70;100.00;95698.69;1029157;28;20121;-74
2022/07/25 02:09:46;;;;;;;12.18;10.85;;;;;;;17.76;100.00;95713.41;1029183;28;20564;-70
2022/07/25 02:10:17;;;;;;;13.93;11.48;;;;;;;17.76;100.00;95713.41;1026800;28;20050;-71
2022/07/25 02:10:47;;;;;;;18.83;11.13;;;;;;;17.76;100.00;95708.09;1026779;28;20038;-70
2022/07/25 02:11:18;;;;;;;18.27;11.73;;;;;;;17.75;100.00;95709.97;1030192;28;20528;-70
2022/07/25 02:11:48;;;;;;;13.90;11.15;;;;;;;17.76;100.00;95713.41;1030639;28;20022;-70
2022/07/25 02:12:19;;;;;;;15.50;11.18;;;;;;;17.76;100.00;95713.41;1030833;28;20046;-69
2022/07/25 02:12:49;;;;;;;18.77;11.50;;;;;;;17.74;100.00;95704.94;1022553;29;20046;-70
2022/07/25 02:13:20;;;;;;;21.63;11.32;;;;;;;17.76;100.00;95710.75;1018647;29;20035;-70
2022/07/25 02:13:51;;;;;;;15.93;11.02;;;;;;;17.73;100.00;95708.69;1018849;29;20070;-70
2022/07/25 02:14:21;;;;;;;14.63;11.00;;;;;;;17.74;100.00;95705.75;1022697;29;20038;-70
2022/07/25 02:14:52;;;;;;;17.13;11.25;;;;;;;17.74;100.00;95710.25;1018633;29;20948;-71
2022/07/25 02:15:22;;;;;;;13.52;10.52;;;;;;;17.71;100.00;95705.59;1022910;28;20027;-70
2022/07/25 02:15:53;;;;;;;14.07;10.52;;;;;;;17.69;100.00;95705.88;1026847;28;20033;-72
2022/07/25 02:16:23;;;;;;;12.50;10.57;;;;;;;17.68;100.00;95707.75;1030764;28;20026;-70
2022/07/25 02:16:54;;;;;;;13.75;10.20;;;;;;;17.68;100.00;95706.97;1030352;28;20121;-72
2022/07/25 02:17:24;;;;;;;12.60;11.20;;;;;;;17.68;100.00;95707.75;1030884;28;20034;-70
2022/07/25 02:17:55;;;;;;;12.63;10.82;;;;;;;17.69;100.00;95713.84;1026837;28;20062;-69
2022/07/25 02:18:25;;;;;;;16.17;11.43;;;;;;;17.67;100.00;95706.22;1026707;28;20035;-70
2022/07/25 02:18:56;;;;;;;18.25;11.52;;;;;;;17.67;100.00;95700.91;1030604;28;20381;-72
2022/07/25 02:19:26;;;;;;;13.15;11.00;;;;;;;17.68;100.00;95706.97;1030867;28;20034;-70
2022/07/25 02:19:57;;;;;;;13.52;11.32;;;;;;;17.65;100.00;95703.06;1034634;28;20778;-70
2022/07/25 02:20:27;;;;;;;12.52;11.32;;;;;;;17.61;100.00;95691.50;1030817;28;20041;-71
2022/07/25 02:20:58;;;;;;;11.43;10.27;;;;;;;17.63;100.00;95697.28;1030543;28;20057;-69